Forside
METAR-TAF:

METAR-TAF

Lufthavne :

Illinois Valley Regional Airport (Walter A. Duncan Field)

Peru / LaSalle, Illinois, USA

Breddekreds: 41-21-07N, længdekreds: 089-09-11W, højde: 199 m

Aktuelle vejr

Denne rapport blev lavet for 19 minutter siden, kl. 08:55 UTC
Vind 5 kt fra sydøst
Temperatur 19°C
Fugtighed 83%
Tryk 1018 hPa
Sigt: 16.1 km
Overskyet i en højde af 10000 ft

METAR: KVYS 310855Z AUTO 14005KT 10SM OVC100 19/16 A3007 RMK AO2 T01900164

Tid: 04:14 (09:14 UTC)


TAF: fraværende

Vejrobservationer og prognoser fra mere end 4000 lufthavne (METAR og TAF).

De gule og røde prikker repræsenterer de meteorologiske stationer.

Flyt musen over at se navnet på stationen.

Så klik over at se vejr observationer og prognoser.

At skifte det kort: Klik på de grønne knapper med et sort kors for at zoome ind; på den grønne knap med en bindestreg for at zoome ud; eller på de grønne pile for tilstødende kort.


METAR-TAF: